UKON/NLV METAR and TAF weather

Enter ICAO airport designator
Station Type Date Time Source
UKON METAR 2021/04/16 14:00 UTC NOAA

UKON 161400Z 22008MPS 9999 SCT029CB 10/04 Q1015 R22/290165 NOSIG


Station Type Date Time Source
UKON Decoded METAR 2021/04/16 14:00 UTC NOAA

Mykolaiv, Ukraine (UKON) 47-03-29N 031-55-15E
Apr 16, 2021 - 10:00 AM EDT / 2021.04.16 1400 UTC
Wind: from the SW (220 degrees) at 18 MPH (16 KT):0
Visibility: greater than 7 mile(s):0
Sky conditions: partly cloudy
Weather: Cumulonimbus clouds observed
Temperature: 50 F (10 C)
Dew Point: 39 F (4 C)
Relative Humidity: 66%
Pressure (altimeter): 29.97 in. Hg (1015 hPa)
ob: UKON 161400Z 22008MPS 9999 SCT029CB 10/04 Q1015 R22/290165 NOSIG
cycle: 14

Station Type Date Time Source
UKON TAF 2018/11/06 15:06 UTC NOAA

TAF
AMD TAF
AMD UKON 061502Z 0615/0724 CNL

Example: see airport list